sensor_id;sensor_type;location;lat;lon;timestamp;pressure;altitude;pressure_sealevel;temperature;humidity
72438;BME280;60444;43.534;-5.674;2022-11-24T00:01:54;101521.66;;;14.93;94.09
72438;BME280;60444;43.534;-5.674;2022-11-24T00:04:19;101530.72;;;14.94;93.93
72438;BME280;60444;43.534;-5.674;2022-11-24T00:06:45;101508.53;;;14.84;94.10
72438;BME280;60444;43.534;-5.674;2022-11-24T00:09:11;101520.09;;;14.89;94.17
72438;BME280;60444;43.534;-5.674;2022-11-24T00:11:36;101534.47;;;14.91;94.52
72438;BME280;60444;43.534;-5.674;2022-11-24T00:14:03;101531.22;;;14.85;94.23
72438;BME280;60444;43.534;-5.674;2022-11-24T00:16:32;101518.31;;;14.88;95.22
72438;BME280;60444;43.534;-5.674;2022-11-24T00:19:00;101520.25;;;14.86;94.50
72438;BME280;60444;43.534;-5.674;2022-11-24T00:21:28;101520.41;;;14.83;94.33
72438;BME280;60444;43.534;-5.674;2022-11-24T00:23:55;101504.75;;;14.71;95.89
72438;BME280;60444;43.534;-5.674;2022-11-24T00:26:28;101500.09;;;14.73;97.23
72438;BME280;60444;43.534;-5.674;2022-11-24T00:28:57;101514.25;;;14.80;95.04
72438;BME280;60444;43.534;-5.674;2022-11-24T00:31:30;101508.53;;;14.69;94.30
72438;BME280;60444;43.534;-5.674;2022-11-24T00:33:59;101502.28;;;14.67;94.17
72438;BME280;60444;43.534;-5.674;2022-11-24T00:36:27;101503.97;;;14.69;96.20
72438;BME280;60444;43.534;-5.674;2022-11-24T00:38:54;101484.69;;;14.57;95.74
72438;BME280;60444;43.534;-5.674;2022-11-24T00:41:20;101507.53;;;14.70;94.98
72438;BME280;60444;43.534;-5.674;2022-11-24T00:43:45;101492.59;;;14.61;94.65
72438;BME280;60444;43.534;-5.674;2022-11-24T00:46:11;101484.69;;;14.57;94.89
72438;BME280;60444;43.534;-5.674;2022-11-24T00:48:36;101484.69;;;14.57;95.52
72438;BME280;60444;43.534;-5.674;2022-11-24T00:51:07;101489.34;;;14.54;95.23
72438;BME280;60444;43.534;-5.674;2022-11-24T00:53:34;101507.91;;;14.64;94.56
72438;BME280;60444;43.534;-5.674;2022-11-24T00:56:00;101466.63;;;14.38;94.59
72438;BME280;60444;43.534;-5.674;2022-11-24T00:58:28;101479.81;;;14.46;95.20
72438;BME280;60444;43.534;-5.674;2022-11-24T01:00:54;101502.69;;;14.59;96.64
72438;BME280;60444;43.534;-5.674;2022-11-24T01:03:25;101499.13;;;14.59;95.58
72438;BME280;60444;43.534;-5.674;2022-11-24T01:05:53;101497.34;;;14.57;95.46
72438;BME280;60444;43.534;-5.674;2022-11-24T01:08:19;101483.41;;;14.46;96.73
72438;BME280;60444;43.534;-5.674;2022-11-24T01:10:44;101494.16;;;14.49;96.07
72438;BME280;60444;43.534;-5.674;2022-11-24T01:13:10;101477.25;;;14.43;95.47
72438;BME280;60444;43.534;-5.674;2022-11-24T01:15:37;101474.44;;;14.44;95.33
72438;BME280;60444;43.534;-5.674;2022-11-24T01:18:03;101484.94;;;14.52;96.57
72438;BME280;60444;43.534;-5.674;2022-11-24T01:20:30;101478.16;;;14.43;95.48
72438;BME280;60444;43.534;-5.674;2022-11-24T01:22:55;101474.44;;;14.44;96.06
72438;BME280;60444;43.534;-5.674;2022-11-24T01:25:21;101457.59;;;14.38;96.22
72438;BME280;60444;43.534;-5.674;2022-11-24T01:27:47;101466.56;;;14.40;96.46
72438;BME280;60444;43.534;-5.674;2022-11-24T01:30:12;101469.00;;;14.44;96.72
72438;BME280;60444;43.534;-5.674;2022-11-24T01:32:38;101455.09;;;14.33;96.20
72438;BME280;60444;43.534;-5.674;2022-11-24T01:35:05;101473.50;;;14.45;96.32
72438;BME280;60444;43.534;-5.674;2022-11-24T01:37:31;101470.78;;;14.45;96.73
72438;BME280;60444;43.534;-5.674;2022-11-24T01:39:56;101462.16;;;14.37;96.03
72438;BME280;60444;43.534;-5.674;2022-11-24T01:42:22;101473.66;;;14.42;95.44
72438;BME280;60444;43.534;-5.674;2022-11-24T01:44:52;101460.72;;;14.30;95.97
72438;BME280;60444;43.534;-5.674;2022-11-24T01:47:38;101458.81;;;14.32;96.59
72438;BME280;60444;43.534;-5.674;2022-11-24T01:50:12;101486.63;;;14.37;94.47
72438;BME280;60444;43.534;-5.674;2022-11-24T01:52:47;101492.88;;;14.39;97.58
72438;BME280;60444;43.534;-5.674;2022-11-24T01:55:17;101487.94;;;14.30;97.05
72438;BME280;60444;43.534;-5.674;2022-11-24T01:57:55;101475.13;;;14.32;96.25
72438;BME280;60444;43.534;-5.674;2022-11-24T02:00:23;101460.91;;;14.27;95.23
72438;BME280;60444;43.534;-5.674;2022-11-24T02:02:48;101465.03;;;14.34;95.54
72438;BME280;60444;43.534;-5.674;2022-11-24T02:05:27;101460.41;;;14.36;95.50
72438;BME280;60444;43.534;-5.674;2022-11-24T02:07:56;101448.56;;;14.20;95.49
72438;BME280;60444;43.534;-5.674;2022-11-24T02:10:24;101471.78;;;14.27;95.68
72438;BME280;60444;43.534;-5.674;2022-11-24T02:12:52;101478.31;;;14.23;96.16
72438;BME280;60444;43.534;-5.674;2022-11-24T02:15:19;101458.72;;;14.17;96.34
72438;BME280;60444;43.534;-5.674;2022-11-24T02:17:45;101450.63;;;14.15;95.99
72438;BME280;60444;43.534;-5.674;2022-11-24T02:20:11;101452.56;;;14.13;96.76
72438;BME280;60444;43.534;-5.674;2022-11-24T02:27:47;101484.50;;;14.27;99.83
72438;BME280;60444;43.534;-5.674;2022-11-24T02:30:13;101482.31;;;14.16;98.03
72438;BME280;60444;43.534;-5.674;2022-11-24T02:32:40;101490.88;;;14.26;96.95
72438;BME280;60444;43.534;-5.674;2022-11-24T02:35:07;101484.06;;;14.17;97.01
72438;BME280;60444;43.534;-5.674;2022-11-24T02:37:33;101469.84;;;14.12;96.56
72438;BME280;60444;43.534;-5.674;2022-11-24T02:39:59;101442.31;;;14.01;96.54
72438;BME280;60444;43.534;-5.674;2022-11-24T02:42:26;101482.84;;;14.23;95.87
72438;BME280;60444;43.534;-5.674;2022-11-24T02:44:57;101478.16;;;14.26;97.79
72438;BME280;60444;43.534;-5.674;2022-11-24T02:47:23;101466.78;;;14.18;96.43
72438;BME280;60444;43.534;-5.674;2022-11-24T02:49:48;101467.09;;;14.12;95.52
72438;BME280;60444;43.534;-5.674;2022-11-24T02:52:14;101474.16;;;14.16;95.40
72438;BME280;60444;43.534;-5.674;2022-11-24T02:54:40;101490.09;;;14.24;96.04
72438;BME280;60444;43.534;-5.674;2022-11-24T02:57:06;101493.75;;;14.23;95.46
72438;BME280;60444;43.534;-5.674;2022-11-24T02:59:32;101477.78;;;14.17;95.48
72438;BME280;60444;43.534;-5.674;2022-11-24T03:01:57;101475.19;;;14.14;95.20
72438;BME280;60444;43.534;-5.674;2022-11-24T03:04:23;101475.91;;;14.17;95.19
72438;BME280;60444;43.534;-5.674;2022-11-24T03:06:49;101486.78;;;14.17;95.42
72438;BME280;60444;43.534;-5.674;2022-11-24T03:09:14;101463.59;;;14.10;95.30
72438;BME280;60444;43.534;-5.674;2022-11-24T03:11:40;101461.84;;;14.09;96.33
72438;BME280;60444;43.534;-5.674;2022-11-24T03:14:06;101481.19;;;14.20;95.21
72438;BME280;60444;43.534;-5.674;2022-11-24T03:16:32;101472.56;;;14.12;94.78
72438;BME280;60444;43.534;-5.674;2022-11-24T03:18:57;101479.78;;;14.13;94.21
72438;BME280;60444;43.534;-5.674;2022-11-24T03:21:23;101465.38;;;14.11;95.37
72438;BME280;60444;43.534;-5.674;2022-11-24T03:23:48;101456.50;;;14.08;95.20
72438;BME280;60444;43.534;-5.674;2022-11-24T03:26:16;101457.13;;;14.13;96.27
72438;BME280;60444;43.534;-5.674;2022-11-24T03:28:42;101456.81;;;14.19;94.09
72438;BME280;60444;43.534;-5.674;2022-11-24T03:31:08;101431.81;;;14.11;94.90
72438;BME280;60444;43.534;-5.674;2022-11-24T03:33:34;101443.25;;;14.17;94.97
72438;BME280;60444;43.534;-5.674;2022-11-24T03:36:01;101414.88;;;14.06;95.12
72438;BME280;60444;43.534;-5.674;2022-11-24T03:38:26;101431.75;;;14.12;94.70
72438;BME280;60444;43.534;-5.674;2022-11-24T03:40:52;101409.66;;;14.01;94.94
72438;BME280;60444;43.534;-5.674;2022-11-24T03:43:20;101426.63;;;14.06;94.41
72438;BME280;60444;43.534;-5.674;2022-11-24T03:45:47;101425.41;;;14.12;94.82
72438;BME280;60444;43.534;-5.674;2022-11-24T03:48:16;101413.19;;;14.03;95.14
72438;BME280;60444;43.534;-5.674;2022-11-24T03:50:43;101443.44;;;14.14;95.05
72438;BME280;60444;43.534;-5.674;2022-11-24T03:53:09;101440.16;;;14.08;94.50
72438;BME280;60444;43.534;-5.674;2022-11-24T03:55:35;101424.06;;;14.03;94.31
72438;BME280;60444;43.534;-5.674;2022-11-24T03:58:03;101434.56;;;14.11;95.62
72438;BME280;60444;43.534;-5.674;2022-11-24T04:00:29;101434.00;;;14.04;95.63
72438;BME280;60444;43.534;-5.674;2022-11-24T04:02:54;101453.59;;;14.11;94.57
72438;BME280;60444;43.534;-5.674;2022-11-24T04:05:20;101440.88;;;14.11;94.41
72438;BME280;60444;43.534;-5.674;2022-11-24T04:07:49;101425.50;;;14.10;96.99
72438;BME280;60444;43.534;-5.674;2022-11-24T04:10:14;101410.75;;;13.99;95.39
72438;BME280;60444;43.534;-5.674;2022-11-24T04:12:40;101418.41;;;14.08;94.63
72438;BME280;60444;43.534;-5.674;2022-11-24T04:15:10;101398.78;;;14.01;96.49
72438;BME280;60444;43.534;-5.674;2022-11-24T04:17:35;101415.09;;;14.01;94.64
72438;BME280;60444;43.534;-5.674;2022-11-24T04:20:01;101382.97;;;13.92;95.86
72438;BME280;60444;43.534;-5.674;2022-11-24T04:22:27;101381.44;;;14.04;97.51
72438;BME280;60444;43.534;-5.674;2022-11-24T04:24:52;101361.38;;;13.89;94.78
72438;BME280;60444;43.534;-5.674;2022-11-24T04:27:18;101369.66;;;14.03;95.22
72438;BME280;60444;43.534;-5.674;2022-11-24T04:29:43;101383.84;;;14.10;94.63
72438;BME280;60444;43.534;-5.674;2022-11-24T04:32:09;101336.72;;;13.92;94.97
72438;BME280;60444;43.534;-5.674;2022-11-24T04:34:35;101341.03;;;13.96;94.82
72438;BME280;60444;43.534;-5.674;2022-11-24T04:37:00;101328.47;;;13.94;94.83
72438;BME280;60444;43.534;-5.674;2022-11-24T04:39:26;101348.22;;;13.97;94.79
72438;BME280;60444;43.534;-5.674;2022-11-24T04:41:51;101342.09;;;13.94;95.17
72438;BME280;60444;43.534;-5.674;2022-11-24T04:44:17;101337.53;;;13.94;96.68
72438;BME280;60444;43.534;-5.674;2022-11-24T04:46:42;101358.97;;;14.00;94.94
72438;BME280;60444;43.534;-5.674;2022-11-24T04:49:08;101343.84;;;13.95;94.79
72438;BME280;60444;43.534;-5.674;2022-11-24T04:51:37;101345.19;;;14.03;95.14
72438;BME280;60444;43.534;-5.674;2022-11-24T04:54:04;101320.97;;;13.99;94.55
72438;BME280;60444;43.534;-5.674;2022-11-24T04:56:30;101323.44;;;14.03;94.71
72438;BME280;60444;43.534;-5.674;2022-11-24T04:58:56;101305.50;;;13.99;94.31
72438;BME280;60444;43.534;-5.674;2022-11-24T05:01:21;101305.50;;;13.99;94.40
72438;BME280;60444;43.534;-5.674;2022-11-24T05:03:47;101281.00;;;13.84;96.18
72438;BME280;60444;43.534;-5.674;2022-11-24T05:06:12;101282.19;;;13.95;96.39
72438;BME280;60444;43.534;-5.674;2022-11-24T05:08:38;101247.59;;;13.82;94.04
72438;BME280;60444;43.534;-5.674;2022-11-24T05:11:05;101295.78;;;13.95;94.50
72438;BME280;60444;43.534;-5.674;2022-11-24T05:13:31;101297.53;;;13.96;95.11
72438;BME280;60444;43.534;-5.674;2022-11-24T05:15:56;101276.38;;;13.86;94.52
72438;BME280;60444;43.534;-5.674;2022-11-24T05:18:22;101270.03;;;13.85;94.47
72438;BME280;60444;43.534;-5.674;2022-11-24T05:20:47;101268.31;;;13.84;94.06
72438;BME280;60444;43.534;-5.674;2022-11-24T05:23:14;101263.66;;;13.86;94.36
72438;BME280;60444;43.534;-5.674;2022-11-24T05:25:40;101253.63;;;13.87;94.81
72438;BME280;60444;43.534;-5.674;2022-11-24T05:28:07;101263.31;;;13.92;95.09
72438;BME280;60444;43.534;-5.674;2022-11-24T05:30:37;101257.53;;;13.98;94.03
72438;BME280;60444;43.534;-5.674;2022-11-24T05:33:07;101257.72;;;13.95;94.28
72438;BME280;60444;43.534;-5.674;2022-11-24T05:35:34;101252.84;;;13.85;94.26
72438;BME280;60444;43.534;-5.674;2022-11-24T05:38:01;101235.66;;;13.84;94.40
72438;BME280;60444;43.534;-5.674;2022-11-24T05:40:28;101229.53;;;13.81;96.46
72438;BME280;60444;43.534;-5.674;2022-11-24T05:42:54;101251.47;;;13.93;94.75
72438;BME280;60444;43.534;-5.674;2022-11-24T05:45:21;101262.09;;;13.98;94.63
72438;BME280;60444;43.534;-5.674;2022-11-24T05:47:48;101248.38;;;13.99;97.25
72438;BME280;60444;43.534;-5.674;2022-11-24T05:50:15;101221.81;;;13.89;98.62
72438;BME280;60444;43.534;-5.674;2022-11-24T05:52:41;101236.28;;;13.89;95.82
72438;BME280;60444;43.534;-5.674;2022-11-24T05:55:08;101220.31;;;13.83;94.70
72438;BME280;60444;43.534;-5.674;2022-11-24T05:57:35;101241.41;;;13.95;95.01
72438;BME280;60444;43.534;-5.674;2022-11-24T06:00:01;101254.19;;;13.93;96.67
72438;BME280;60444;43.534;-5.674;2022-11-24T06:02:28;101246.97;;;13.92;95.46
72438;BME280;60444;43.534;-5.674;2022-11-24T06:04:53;101236.28;;;13.89;97.46
72438;BME280;60444;43.534;-5.674;2022-11-24T06:07:19;101236.09;;;13.92;96.44
72438;BME280;60444;43.534;-5.674;2022-11-24T06:09:44;101226.53;;;13.85;96.46
72438;BME280;60444;43.534;-5.674;2022-11-24T06:12:11;101257.63;;;13.97;95.21
72438;BME280;60444;43.534;-5.674;2022-11-24T06:14:37;101263.16;;;13.95;95.31
72438;BME280;60444;43.534;-5.674;2022-11-24T06:17:03;101253.72;;;13.85;95.00
72438;BME280;60444;43.534;-5.674;2022-11-24T06:19:29;101262.69;;;13.87;94.86
72438;BME280;60444;43.534;-5.674;2022-11-24T06:21:55;101289.56;;;13.93;96.16
72438;BME280;60444;43.534;-5.674;2022-11-24T06:24:21;101274.06;;;13.78;96.02
72438;BME280;60444;43.534;-5.674;2022-11-24T06:26:47;101289.00;;;13.87;96.30
72438;BME280;60444;43.534;-5.674;2022-11-24T06:29:12;101269.50;;;13.79;95.85
72438;BME280;60444;43.534;-5.674;2022-11-24T06:31:38;101266.38;;;13.86;96.58
72438;BME280;60444;43.534;-5.674;2022-11-24T06:34:07;101287.78;;;13.92;95.89
72438;BME280;60444;43.534;-5.674;2022-11-24T06:36:36;101303.28;;;13.90;95.62
72438;BME280;60444;43.534;-5.674;2022-11-24T06:39:03;101303.28;;;13.90;96.49
72438;BME280;60444;43.534;-5.674;2022-11-24T06:41:29;101301.47;;;13.91;98.00
72438;BME280;60444;43.534;-5.674;2022-11-24T06:43:54;101284.06;;;13.78;97.00
72438;BME280;60444;43.534;-5.674;2022-11-24T06:46:20;101283.81;;;13.82;96.82
72438;BME280;60444;43.534;-5.674;2022-11-24T06:48:46;101282.94;;;13.82;96.40
72438;BME280;60444;43.534;-5.674;2022-11-24T06:51:12;101284.22;;;13.75;96.38
72438;BME280;60444;43.534;-5.674;2022-11-24T06:53:39;101279.38;;;13.64;96.98
72438;BME280;60444;43.534;-5.674;2022-11-24T06:56:06;101305.41;;;13.85;97.63
72438;BME280;60444;43.534;-5.674;2022-11-24T06:58:40;101303.03;;;13.79;96.64
72438;BME280;60444;43.534;-5.674;2022-11-24T07:01:05;101311.25;;;13.78;96.53
72438;BME280;60444;43.534;-5.674;2022-11-24T07:03:31;101311.00;;;13.82;98.02
72438;BME280;60444;43.534;-5.674;2022-11-24T07:05:57;101272.34;;;13.60;97.13
72438;BME280;60444;43.534;-5.674;2022-11-24T07:08:23;101292.47;;;13.73;96.99
72438;BME280;60444;43.534;-5.674;2022-11-24T07:10:49;101270.97;;;13.69;97.27
72438;BME280;60444;43.534;-5.674;2022-11-24T07:13:17;101307.31;;;13.83;97.39
72438;BME280;60444;43.534;-5.674;2022-11-24T07:15:42;101269.22;;;13.68;98.65
72438;BME280;60444;43.534;-5.674;2022-11-24T07:18:08;101284.41;;;13.72;97.11
72438;BME280;60444;43.534;-5.674;2022-11-24T07:20:34;101296.44;;;13.83;98.74
72438;BME280;60444;43.534;-5.674;2022-11-24T07:22:59;101272.75;;;13.70;99.62
72438;BME280;60444;43.534;-5.674;2022-11-24T07:25:25;101280.47;;;13.77;99.54
72438;BME280;60444;43.534;-5.674;2022-11-24T07:27:58;101265.63;;;13.67;98.49
72438;BME280;60444;43.534;-5.674;2022-11-24T07:30:27;101266.81;;;13.62;98.21
72438;BME280;60444;43.534;-5.674;2022-11-24T07:33:00;101297.75;;;13.76;98.01
72438;BME280;60444;43.534;-5.674;2022-11-24T07:35:27;101290.56;;;13.75;98.47
72438;BME280;60444;43.534;-5.674;2022-11-24T07:37:56;101262.19;;;13.64;98.13
72438;BME280;60444;43.534;-5.674;2022-11-24T07:40:23;101259.38;;;13.65;98.22
72438;BME280;60444;43.534;-5.674;2022-11-24T07:42:48;101262.75;;;13.70;98.25
72438;BME280;60444;43.534;-5.674;2022-11-24T07:45:14;101257.81;;;13.61;98.11
72438;BME280;60444;43.534;-5.674;2022-11-24T07:47:40;101284.22;;;13.75;98.42
72438;BME280;60444;43.534;-5.674;2022-11-24T07:50:07;101290.66;;;13.74;98.45
72438;BME280;60444;43.534;-5.674;2022-11-24T07:52:36;101277.06;;;13.74;98.62
72438;BME280;60444;43.534;-5.674;2022-11-24T07:55:03;101272.66;;;13.71;98.87
72438;BME280;60444;43.534;-5.674;2022-11-24T07:57:29;101243.44;;;13.59;99.13
72438;BME280;60444;43.534;-5.674;2022-11-24T07:59:55;101264.72;;;13.67;99.02
72438;BME280;60444;43.534;-5.674;2022-11-24T08:02:20;101238.00;;;13.59;99.02
72438;BME280;60444;43.534;-5.674;2022-11-24T08:04:46;101256.25;;;13.73;99.00
72438;BME280;60444;43.534;-5.674;2022-11-24T08:07:12;101243.94;;;13.66;98.69
72438;BME280;60444;43.534;-5.674;2022-11-24T08:09:37;101251.69;;;13.73;99.06
72438;BME280;60444;43.534;-5.674;2022-11-24T08:12:03;101249.16;;;13.70;99.13
72438;BME280;60444;43.534;-5.674;2022-11-24T08:14:28;101231.75;;;13.57;99.44
72438;BME280;60444;43.534;-5.674;2022-11-24T08:16:54;101256.34;;;13.71;99.56
72438;BME280;60444;43.534;-5.674;2022-11-24T08:19:20;101238.00;;;13.59;99.79
72438;BME280;60444;43.534;-5.674;2022-11-24T08:21:46;101258.94;;;13.40;99.41
72438;BME280;60444;43.534;-5.674;2022-11-24T08:24:12;101251.28;;;13.31;100.00
72438;BME280;60444;43.534;-5.674;2022-11-24T08:26:40;101266.56;;;13.33;100.00
72438;BME280;60444;43.534;-5.674;2022-11-24T08:29:05;101281.16;;;13.31;100.00
72438;BME280;60444;43.534;-5.674;2022-11-24T08:31:31;101266.94;;;13.09;100.00
72438;BME280;60444;43.534;-5.674;2022-11-24T08:34:04;101286.88;;;12.91;100.00
72438;BME280;60444;43.534;-5.674;2022-11-24T08:36:31;101302.78;;;12.81;100.00
72438;BME280;60444;43.534;-5.674;2022-11-24T08:38:58;101316.00;;;12.87;100.00
72438;BME280;60444;43.534;-5.674;2022-11-24T08:41:25;101313.47;;;12.84;100.00
72438;BME280;60444;43.534;-5.674;2022-11-24T08:43:51;101304.56;;;12.64;100.00
72438;BME280;60444;43.534;-5.674;2022-11-24T08:46:17;101324.13;;;12.70;100.00
72438;BME280;60444;43.534;-5.674;2022-11-24T08:48:47;101314.16;;;12.71;100.00
72438;BME280;60444;43.534;-5.674;2022-11-24T08:51:15;101308.75;;;12.71;100.00
72438;BME280;60444;43.534;-5.674;2022-11-24T08:53:42;101317.97;;;12.85;100.00
72438;BME280;60444;43.534;-5.674;2022-11-24T08:56:09;101316.72;;;12.91;100.00
72438;BME280;60444;43.534;-5.674;2022-11-24T08:58:35;101325.63;;;12.94;100.00
72438;BME280;60444;43.534;-5.674;2022-11-24T09:01:06;101306.75;;;12.91;100.00
72438;BME280;60444;43.534;-5.674;2022-11-24T09:03:32;101298.22;;;12.99;100.00
72438;BME280;60444;43.534;-5.674;2022-11-24T09:05:59;101319.53;;;13.08;100.00
72438;BME280;60444;43.534;-5.674;2022-11-24T09:08:24;101321.22;;;13.10;100.00
72438;BME280;60444;43.534;-5.674;2022-11-24T09:10:50;101308.34;;;13.14;100.00
72438;BME280;60444;43.534;-5.674;2022-11-24T09:13:16;101308.00;;;13.20;100.00
72438;BME280;60444;43.534;-5.674;2022-11-24T09:15:42;101305.31;;;13.20;100.00
72438;BME280;60444;43.534;-5.674;2022-11-24T09:18:07;101341.19;;;13.26;100.00
72438;BME280;60444;43.534;-5.674;2022-11-24T09:20:35;101337.91;;;13.37;100.00
72438;BME280;60444;43.534;-5.674;2022-11-24T09:23:01;101332.41;;;13.38;100.00
72438;BME280;60444;43.534;-5.674;2022-11-24T09:25:26;101335.75;;;13.43;100.00
72438;BME280;60444;43.534;-5.674;2022-11-24T09:27:52;101321.63;;;13.37;100.00
72438;BME280;60444;43.534;-5.674;2022-11-24T09:30:18;101321.22;;;13.44;100.00
72438;BME280;60444;43.534;-5.674;2022-11-24T09:32:44;101318.25;;;13.49;100.00
72438;BME280;60444;43.534;-5.674;2022-11-24T09:35:10;101328.63;;;13.58;100.00
72438;BME280;60444;43.534;-5.674;2022-11-24T09:37:35;101295.06;;;13.42;100.00
72438;BME280;60444;43.534;-5.674;2022-11-24T09:40:01;101308.81;;;13.56;100.00
72438;BME280;60444;43.534;-5.674;2022-11-24T09:48:52;101318.72;;;13.57;100.00
72438;BME280;60444;43.534;-5.674;2022-11-24T09:51:21;101312.81;;;13.49;100.00
72438;BME280;60444;43.534;-5.674;2022-11-24T09:56:28;101337.97;;;13.70;100.00
72438;BME280;60444;43.534;-5.674;2022-11-24T09:59:36;101344.31;;;13.70;100.00
72438;BME280;60444;43.534;-5.674;2022-11-24T10:01:55;101356.03;;;13.71;100.00
72438;BME280;60444;43.534;-5.674;2022-11-24T10:04:28;101354.59;;;13.64;100.00
72438;BME280;60444;43.534;-5.674;2022-11-24T10:21:08;101359.34;;;13.77;100.00
72438;BME280;60444;43.534;-5.674;2022-11-24T10:26:29;101344.75;;;13.78;100.00
72438;BME280;60444;43.534;-5.674;2022-11-24T10:28:56;101321.09;;;13.63;100.00
72438;BME280;60444;43.534;-5.674;2022-11-24T10:31:32;101322.38;;;13.73;100.00
72438;BME280;60444;43.534;-5.674;2022-11-24T10:34:15;101317.84;;;13.74;100.00
72438;BME280;60444;43.534;-5.674;2022-11-24T10:36:50;101317.13;;;13.70;100.00
72438;BME280;60444;43.534;-5.674;2022-11-24T10:39:27;101318.47;;;13.79;100.00
72438;BME280;60444;43.534;-5.674;2022-11-24T10:42:13;101349.72;;;13.87;100.00
72438;BME280;60444;43.534;-5.674;2022-11-24T10:44:40;101334.41;;;13.85;100.00
72438;BME280;60444;43.534;-5.674;2022-11-24T10:47:19;101330.75;;;13.86;100.00
72438;BME280;60444;43.534;-5.674;2022-11-24T10:49:54;101301.06;;;13.81;100.00
72438;BME280;60444;43.534;-5.674;2022-11-24T10:52:23;101265.72;;;13.81;100.00
72438;BME280;60444;43.534;-5.674;2022-11-24T10:54:57;101264.88;;;13.81;100.00
72438;BME280;60444;43.534;-5.674;2022-11-24T10:57:32;101296.66;;;13.96;100.00
72438;BME280;60444;43.534;-5.674;2022-11-24T10:59:59;101288.41;;;13.97;100.00
72438;BME280;60444;43.534;-5.674;2022-11-24T11:04:53;101266.81;;;13.94;100.00
72438;BME280;60444;43.534;-5.674;2022-11-24T11:07:21;101271.13;;;13.98;100.00
72438;BME280;60444;43.534;-5.674;2022-11-24T11:09:47;101233.47;;;13.91;100.00
72438;BME280;60444;43.534;-5.674;2022-11-24T11:12:22;101256.13;;;14.07;100.00
72438;BME280;60444;43.534;-5.674;2022-11-24T11:14:51;101189.72;;;13.95;100.00
72438;BME280;60444;43.534;-5.674;2022-11-24T11:17:34;101174.91;;;14.01;100.00
72438;BME280;60444;43.534;-5.674;2022-11-24T11:20:04;101188.03;;;14.08;100.00
72438;BME280;60444;43.534;-5.674;2022-11-24T11:22:32;101202.09;;;14.01;100.00
72438;BME280;60444;43.534;-5.674;2022-11-24T11:27:34;101237.25;;;14.19;100.00
72438;BME280;60444;43.534;-5.674;2022-11-24T11:32:57;101181.00;;;14.20;100.00
72438;BME280;60444;43.534;-5.674;2022-11-24T11:35:26;101156.25;;;14.24;100.00
72438;BME280;60444;43.534;-5.674;2022-11-24T11:38:00;101145.25;;;14.27;100.00
72438;BME280;60444;43.534;-5.674;2022-11-24T11:40:29;101140.75;;;14.26;100.00
72438;BME280;60444;43.534;-5.674;2022-11-24T11:43:08;101158.47;;;14.18;100.00
72438;BME280;60444;43.534;-5.674;2022-11-24T11:45:41;101187.34;;;14.20;100.00
72438;BME280;60444;43.534;-5.674;2022-11-24T11:48:31;101187.34;;;14.20;100.00
72438;BME280;60444;43.534;-5.674;2022-11-24T11:54:00;101086.34;;;14.11;100.00
72438;BME280;60444;43.534;-5.674;2022-11-24T11:56:34;101068.56;;;14.19;100.00
72438;BME280;60444;43.534;-5.674;2022-11-24T12:15:36;101135.75;;;14.34;100.00
72438;BME280;60444;43.534;-5.674;2022-11-24T12:34:54;101128.66;;;14.62;100.00
72438;BME280;60444;43.534;-5.674;2022-11-24T12:49:03;101135.69;;;14.80;100.00
72438;BME280;60444;43.534;-5.674;2022-11-24T12:51:41;101118.16;;;14.70;99.37
72438;BME280;60444;43.534;-5.674;2022-11-24T12:54:13;101123.66;;;14.84;100.00
72438;BME280;60444;43.534;-5.674;2022-11-24T12:57:01;101129.78;;;14.87;100.00
72438;BME280;60444;43.534;-5.674;2022-11-24T12:59:42;101121.63;;;14.87;100.00
72438;BME280;60444;43.534;-5.674;2022-11-24T13:07:59;101116.34;;;14.84;99.34
72438;BME280;60444;43.534;-5.674;2022-11-24T13:10:28;101127.84;;;14.89;99.97
72438;BME280;60444;43.534;-5.674;2022-11-24T13:13:05;101132.41;;;14.89;100.00
72438;BME280;60444;43.534;-5.674;2022-11-24T13:15:32;101153.91;;;14.93;100.00
72438;BME280;60444;43.534;-5.674;2022-11-24T13:18:54;101157.50;;;14.94;99.55
72438;BME280;60444;43.534;-5.674;2022-11-24T13:23:56;101165.31;;;15.00;100.00
72438;BME280;60444;43.534;-5.674;2022-11-24T13:29:03;101158.09;;;15.13;100.00
72438;BME280;60444;43.534;-5.674;2022-11-24T13:31:30;101156.00;;;15.18;100.00
72438;BME280;60444;43.534;-5.674;2022-11-24T13:33:56;101126.19;;;15.15;100.00
72438;BME280;60444;43.534;-5.674;2022-11-24T13:49:39;101153.88;;;15.51;100.00
72438;BME280;60444;43.534;-5.674;2022-11-24T13:55:20;101142.88;;;15.52;100.00
72438;BME280;60444;43.534;-5.674;2022-11-24T14:02:52;101164.81;;;15.65;98.64
72438;BME280;60444;43.534;-5.674;2022-11-24T14:05:22;101148.06;;;15.57;97.02
72438;BME280;60444;43.534;-5.674;2022-11-24T14:07:49;101158.97;;;15.57;99.29
72438;BME280;60444;43.534;-5.674;2022-11-24T14:10:19;101162.25;;;15.62;98.92
72438;BME280;60444;43.534;-5.674;2022-11-24T14:12:45;101175.63;;;15.67;98.16
72438;BME280;60444;43.534;-5.674;2022-11-24T14:15:29;101165.78;;;15.64;98.69
72438;BME280;60444;43.534;-5.674;2022-11-24T14:17:58;101161.47;;;15.60;99.70
72438;BME280;60444;43.534;-5.674;2022-11-24T14:20:25;101155.56;;;15.53;99.04
72438;BME280;60444;43.534;-5.674;2022-11-24T14:22:52;101184.38;;;15.72;98.55
72438;BME280;60444;43.534;-5.674;2022-11-24T14:25:29;101181.53;;;15.73;98.37
72438;BME280;60444;43.534;-5.674;2022-11-24T14:27:55;101180.47;;;15.76;100.00
72438;BME280;60444;43.534;-5.674;2022-11-24T14:30:23;101184.06;;;15.76;98.89
72438;BME280;60444;43.534;-5.674;2022-11-24T14:32:54;101182.22;;;15.77;98.04
72438;BME280;60444;43.534;-5.674;2022-11-24T14:35:21;101184.84;;;15.78;97.44
72438;BME280;60444;43.534;-5.674;2022-11-24T14:37:47;101170.84;;;15.70;97.99
72438;BME280;60444;43.534;-5.674;2022-11-24T14:40:52;101181.84;;;15.83;99.24
72438;BME280;60444;43.534;-5.674;2022-11-24T14:43:26;101181.84;;;15.83;100.00